createdAt,value
2018-01-12T00:00:39.997Z,1009.53
2018-01-12T00:01:40.009Z,1009.54
2018-01-12T00:02:40.020Z,1009.57
2018-01-12T00:03:40.033Z,1009.59
2018-01-12T00:04:40.055Z,1009.57
2018-01-12T00:05:40.060Z,1009.57
2018-01-12T00:06:40.079Z,1009.57
2018-01-12T00:07:40.091Z,1009.6
2018-01-12T00:08:40.103Z,1009.58
2018-01-12T00:09:40.110Z,1009.6
2018-01-12T00:10:40.128Z,1009.54
2018-01-12T00:11:40.140Z,1009.56
2018-01-12T00:12:40.151Z,1009.56
2018-01-12T00:13:40.160Z,1009.57
2018-01-12T00:14:40.228Z,1009.56
2018-01-12T00:15:40.188Z,1009.57
2018-01-12T00:16:40.197Z,1009.55
2018-01-12T00:17:40.212Z,1009.53
2018-01-12T00:18:40.214Z,1009.56
2018-01-12T00:19:40.226Z,1009.59
2018-01-12T00:20:40.249Z,1009.58
2018-01-12T00:21:40.250Z,1009.61
2018-01-12T00:22:40.263Z,1009.62
2018-01-12T00:23:40.288Z,1009.64
2018-01-12T00:24:40.286Z,1009.65
2018-01-12T00:25:40.309Z,1009.64
2018-01-12T00:26:40.312Z,1009.63
2018-01-12T00:27:40.323Z,1009.65
2018-01-12T00:28:40.335Z,1009.7
2018-01-12T00:29:40.347Z,1009.67
2018-01-12T00:30:40.359Z,1009.68
2018-01-12T00:31:40.381Z,1009.66
2018-01-12T00:32:40.384Z,1009.72
2018-01-12T00:33:40.396Z,1009.71
2018-01-12T00:34:40.410Z,1009.72
2018-01-12T00:35:40.429Z,1009.74
2018-01-12T00:36:40.443Z,1009.74
2018-01-12T00:37:40.455Z,1009.76
2018-01-12T00:38:40.467Z,1009.79
2018-01-12T00:39:40.468Z,1009.8
2018-01-12T00:40:40.491Z,1009.8
2018-01-12T00:41:40.503Z,1009.82
2018-01-12T00:42:40.515Z,1009.85
2018-01-12T00:43:40.528Z,1009.83
2018-01-12T00:44:40.529Z,1009.86
2018-01-12T00:45:40.541Z,1009.87
2018-01-12T00:46:40.552Z,1009.89
2018-01-12T00:47:40.576Z,1009.88
2018-01-12T00:48:40.577Z,1009.92
2018-01-12T00:49:40.599Z,1009.92
2018-01-12T00:50:40.612Z,1009.95
2018-01-12T00:51:40.615Z,1009.94
2018-01-12T00:52:40.628Z,1009.95
2018-01-12T00:53:40.648Z,1009.96
2018-01-12T00:54:40.650Z,1009.95
2018-01-12T00:55:40.674Z,1010.02
2018-01-12T00:56:40.673Z,1010.04
2018-01-12T00:57:40.686Z,1010.06
2018-01-12T00:58:40.700Z,1010.08
2018-01-12T00:59:40.712Z,1010.06
2018-01-12T01:00:40.735Z,1010.06
2018-01-12T01:01:40.745Z,1010.12
2018-01-12T01:02:40.748Z,1010.13
2018-01-12T01:03:40.759Z,1010.15
2018-01-12T01:04:40.770Z,1010.2
2018-01-12T01:05:40.794Z,1010.17
2018-01-12T01:06:40.807Z,1010.17
2018-01-12T01:07:40.806Z,1010.2
2018-01-12T01:08:40.841Z,1010.26
2018-01-12T01:09:40.842Z,1010.23
2018-01-12T01:10:40.844Z,1010.27
2018-01-12T01:11:40.854Z,1010.27
2018-01-12T01:12:40.878Z,1010.28
2018-01-12T01:13:40.931Z,1010.3
2018-01-12T01:14:40.890Z,1010.31
2018-01-12T01:15:40.914Z,1010.3
2018-01-12T01:16:40.915Z,1010.31
2018-01-12T01:17:40.928Z,1010.27
2018-01-12T01:18:40.999Z,1010.29
2018-01-12T01:19:40.961Z,1010.31
2018-01-12T01:20:40.975Z,1010.3
2018-01-12T01:21:40.987Z,1010.33
2018-01-12T01:22:40.986Z,1010.38
2018-01-12T01:23:41.009Z,1010.37
2018-01-12T01:24:41.012Z,1010.37
2018-01-12T01:25:41.023Z,1010.38
2018-01-12T01:26:41.050Z,1010.36
2018-01-12T01:27:41.057Z,1010.4
2018-01-12T01:28:41.059Z,1010.42
2018-01-12T01:29:41.080Z,1010.44
2018-01-12T01:30:41.081Z,1010.47
2018-01-12T01:31:41.095Z,1010.47
2018-01-12T01:32:41.107Z,1010.46
2018-01-12T01:33:41.167Z,1010.51
2018-01-12T01:34:41.133Z,1010.5
2018-01-12T01:35:41.142Z,1010.49
2018-01-12T01:36:41.153Z,1010.49
2018-01-12T01:37:41.180Z,1010.52
2018-01-12T01:38:41.188Z,1010.5
2018-01-12T01:39:41.190Z,1010.49
2018-01-12T01:40:41.211Z,1010.5
2018-01-12T01:41:41.224Z,1010.53
2018-01-12T01:42:41.238Z,1010.52
2018-01-12T01:43:41.247Z,1010.53
2018-01-12T01:44:41.249Z,1010.51
2018-01-12T01:45:41.272Z,1010.51
2018-01-12T01:46:41.283Z,1010.54
2018-01-12T01:47:41.286Z,1010.52
2018-01-12T01:48:41.297Z,1010.51
2018-01-12T01:49:41.319Z,1010.55
2018-01-12T01:50:41.331Z,1010.57
2018-01-12T01:51:41.336Z,1010.59
2018-01-12T01:52:41.344Z,1010.54
2018-01-12T01:53:41.357Z,1010.6
2018-01-12T01:54:41.378Z,1010.56
2018-01-12T01:55:41.389Z,1010.59
2018-01-12T01:56:41.390Z,1010.6
2018-01-12T01:57:41.402Z,1010.63
2018-01-12T01:58:41.413Z,1010.65
2018-01-12T01:59:41.426Z,1010.67
2018-01-12T02:00:41.438Z,1010.69
2018-01-12T02:01:41.461Z,1010.73
2018-01-12T02:02:41.461Z,1010.74
2018-01-12T02:03:41.474Z,1010.74
2018-01-12T02:04:41.498Z,1010.74
2018-01-12T02:05:41.498Z,1010.75
2018-01-12T02:06:41.519Z,1010.74
2018-01-12T02:07:41.540Z,1010.79
2018-01-12T02:08:41.538Z,1010.76
2018-01-12T02:09:41.621Z,1010.76
2018-01-12T02:10:41.556Z,1010.78
2018-01-12T02:11:41.579Z,1010.79
2018-01-12T02:12:41.580Z,1010.81
2018-01-12T02:13:41.601Z,1010.81
2018-01-12T02:14:41.603Z,1010.83
2018-01-12T02:15:41.615Z,1010.86
2018-01-12T02:16:41.637Z,1010.87
2018-01-12T02:17:41.639Z,1010.9
2018-01-12T02:18:41.660Z,1010.88
2018-01-12T02:19:41.673Z,1010.92
2018-01-12T02:20:41.673Z,1010.93
2018-01-12T02:21:41.697Z,1010.99
2018-01-12T02:22:41.697Z,1010.96
2018-01-12T02:23:41.709Z,1010.95
2018-01-12T02:24:41.720Z,1010.96
2018-01-12T02:25:41.732Z,1010.94
2018-01-12T02:26:41.746Z,1010.97
2018-01-12T02:27:41.756Z,1010.99
2018-01-12T02:28:41.779Z,1010.94
2018-01-12T02:29:41.780Z,1010.97
2018-01-12T02:30:41.798Z,1010.98
2018-01-12T02:31:41.813Z,1010.95
2018-01-12T02:32:41.833Z,1010.98
2018-01-12T02:33:41.840Z,1011.03
2018-01-12T02:34:41.840Z,1011
2018-01-12T02:35:41.860Z,1010.96
2018-01-12T02:36:41.872Z,1010.95
2018-01-12T02:37:41.885Z,1010.95
2018-01-12T02:38:41.900Z,1010.95
2018-01-12T02:39:41.908Z,1010.91
2018-01-12T02:40:41.921Z,1010.9
2018-01-12T02:41:41.921Z,1010.95
2018-01-12T02:42:41.942Z,1010.95
2018-01-12T02:43:41.948Z,1010.96
2018-01-12T02:44:41.956Z,1011
2018-01-12T02:45:41.970Z,1010.97
2018-01-12T02:46:41.980Z,1010.98
2018-01-12T02:47:41.991Z,1011.04
2018-01-12T02:48:42.017Z,1011.03
2018-01-12T02:49:42.024Z,1011.02
2018-01-12T02:50:42.037Z,1011.02
2018-01-12T02:51:42.053Z,1011.03
2018-01-12T02:52:42.061Z,1011.04
2018-01-12T02:53:42.061Z,1011.08
2018-01-12T02:54:42.073Z,1011.07
2018-01-12T02:55:42.084Z,1011.12
2018-01-12T02:56:42.097Z,1011.12
2018-01-12T02:57:42.120Z,1011.15
2018-01-12T02:58:42.121Z,1011.2
2018-01-12T02:59:42.142Z,1011.21
2018-01-12T03:00:42.155Z,1011.2
2018-01-12T03:01:42.154Z,1011.16
2018-01-12T03:02:42.168Z,1011.18
2018-01-12T03:03:42.189Z,1011.21
2018-01-12T03:04:42.200Z,1011.24
2018-01-12T03:05:42.211Z,1011.19
2018-01-12T03:06:42.223Z,1011.21
2018-01-12T03:07:42.235Z,1011.2
2018-01-12T03:08:42.250Z,1011.13
2018-01-12T03:09:42.260Z,1011.11
2018-01-12T03:10:42.270Z,1011.09
2018-01-12T03:11:42.282Z,1011.05
2018-01-12T03:12:42.293Z,1011.09
2018-01-12T03:13:42.296Z,1011.07
2018-01-12T03:14:42.307Z,1011.04
2018-01-12T03:15:42.328Z,1011.06
2018-01-12T03:16:42.341Z,1011.03
2018-01-12T03:17:42.342Z,1011.05
2018-01-12T03:18:42.364Z,1011.04
2018-01-12T03:19:42.375Z,1011.07
2018-01-12T03:20:42.376Z,1011.03
2018-01-12T03:21:42.400Z,1011.03
2018-01-12T03:22:42.410Z,1011.04
2018-01-12T03:23:42.424Z,1011.02
2018-01-12T03:24:42.423Z,1011.05
2018-01-12T03:25:42.443Z,1011.08
2018-01-12T03:26:42.446Z,1011.06
2018-01-12T03:27:42.458Z,1011.08
2018-01-12T03:28:42.480Z,1011.1
2018-01-12T03:29:42.493Z,1011.08
2018-01-12T03:30:42.504Z,1011.09
2018-01-12T03:31:42.516Z,1011.11
2018-01-12T03:32:42.521Z,1011.05
2018-01-12T03:33:42.538Z,1011.05
2018-01-12T03:34:42.540Z,1011.08
2018-01-12T03:35:42.562Z,1011.1
2018-01-12T03:36:42.573Z,1011.03
2018-01-12T03:37:42.574Z,1011.09
2018-01-12T03:38:42.586Z,1011.07
2018-01-12T03:39:42.609Z,1011.09
2018-01-12T03:40:42.611Z,1011.1
2018-01-12T03:41:42.635Z,1011.1
2018-01-12T03:42:42.634Z,1011.09
2018-01-12T03:43:42.657Z,1011.13
2018-01-12T03:44:42.656Z,1011.1
2018-01-12T03:45:42.669Z,1011.07
2018-01-12T03:46:42.680Z,1011.11
2018-01-12T03:47:42.735Z,1011.17
2018-01-12T03:48:42.713Z,1011.15
2018-01-12T03:49:42.726Z,1011.16
2018-01-12T03:50:42.738Z,1011.16
2018-01-12T03:51:42.741Z,1011.18
2018-01-12T03:52:42.749Z,1011.2
2018-01-12T03:53:42.761Z,1011.18
2018-01-12T03:54:42.784Z,1011.21
2018-01-12T03:55:42.784Z,1011.22
2018-01-12T03:56:42.808Z,1011.22
2018-01-12T03:57:42.808Z,1011.26
2018-01-12T03:58:42.821Z,1011.25
2018-01-12T03:59:42.841Z,1011.31
2018-01-12T04:00:42.848Z,1011.33
2018-01-12T04:01:42.865Z,1011.32
2018-01-12T04:02:42.868Z,1011.32
2018-01-12T04:03:42.885Z,1011.35
2018-01-12T04:04:42.900Z,1011.36
2018-01-12T04:05:42.913Z,1011.39
2018-01-12T04:06:42.925Z,1011.4
2018-01-12T04:07:42.939Z,1011.41
2018-01-12T04:08:42.959Z,1011.42
2018-01-12T04:09:42.960Z,1011.43
2018-01-12T04:10:42.960Z,1011.45
2018-01-12T04:11:42.984Z,1011.46
2018-01-12T04:12:42.989Z,1011.43
2018-01-12T04:13:42.994Z,1011.43
2018-01-12T04:14:43.007Z,1011.47
2018-01-12T04:15:43.018Z,1011.42
2018-01-12T04:16:43.043Z,1011.44
2018-01-12T04:17:43.052Z,1011.46
2018-01-12T04:18:43.064Z,1011.42
2018-01-12T04:19:43.065Z,1011.43
2018-01-12T04:20:43.088Z,1011.41
2018-01-12T04:21:43.089Z,1011.43
2018-01-12T04:22:43.100Z,1011.38
2018-01-12T04:23:43.122Z,1011.37
2018-01-12T04:24:43.123Z,1011.4
2018-01-12T04:25:43.134Z,1011.44
2018-01-12T04:26:43.157Z,1011.42
2018-01-12T04:27:43.174Z,1011.46
2018-01-12T04:28:43.182Z,1011.4
2018-01-12T04:29:43.187Z,1011.42
2018-01-12T04:30:43.195Z,1011.46
2018-01-12T04:31:43.207Z,1011.44
2018-01-12T04:32:43.226Z,1011.5
2018-01-12T04:33:43.228Z,1011.43
2018-01-12T04:34:43.240Z,1011.49
2018-01-12T04:35:43.250Z,1011.45
2018-01-12T04:36:43.264Z,1011.45
2018-01-12T04:37:43.284Z,1011.47
2018-01-12T04:38:43.288Z,1011.45
2018-01-12T04:39:43.307Z,1011.45
2018-01-12T04:40:43.320Z,1011.46
2018-01-12T04:41:43.321Z,1011.46
2018-01-12T04:42:43.360Z,1011.51
2018-01-12T04:43:43.354Z,1011.48
2018-01-12T04:44:43.366Z,1011.52
2018-01-12T04:45:43.378Z,1011.5
2018-01-12T04:46:43.394Z,1011.48
2018-01-12T04:47:43.390Z,1011.49
2018-01-12T04:48:43.488Z,1011.5
2018-01-12T04:49:43.414Z,1011.49
2018-01-12T04:50:43.596Z,1011.5
2018-01-12T04:51:43.448Z,1011.51
2018-01-12T04:52:43.449Z,1011.51
2018-01-12T04:53:43.461Z,1011.51
2018-01-12T04:54:43.482Z,1011.49
2018-01-12T04:55:43.497Z,1011.52
2018-01-12T04:56:43.507Z,1011.5
2018-01-12T04:57:43.505Z,1011.53
2018-01-12T04:58:43.528Z,1011.53
2018-01-12T04:59:43.530Z,1011.52
2018-01-12T05:00:43.542Z,1011.53
2018-01-12T05:01:43.554Z,1011.53
2018-01-12T05:02:43.564Z,1011.51
2018-01-12T05:03:43.588Z,1011.53
2018-01-12T05:04:43.590Z,1011.53
2018-01-12T05:05:43.609Z,1011.51
2018-01-12T05:06:43.611Z,1011.53
2018-01-12T05:07:43.622Z,1011.52
2018-01-12T05:08:43.644Z,1011.52
2018-01-12T05:09:43.648Z,1011.52
2018-01-12T05:10:43.660Z,1011.52
2018-01-12T05:11:43.680Z,1011.54
2018-01-12T05:12:43.691Z,1011.55
2018-01-12T05:13:43.704Z,1011.53
2018-01-12T05:14:43.714Z,1011.56
2018-01-12T05:15:43.717Z,1011.54
2018-01-12T05:16:43.738Z,1011.59
2018-01-12T05:17:43.738Z,1011.6
2018-01-12T05:18:43.767Z,1011.59
2018-01-12T05:19:43.772Z,1011.58
2018-01-12T05:20:43.773Z,1011.61
2018-01-12T05:21:43.785Z,1011.66
2018-01-12T05:22:43.796Z,1011.64
2018-01-12T05:23:43.820Z,1011.65
2018-01-12T05:24:43.822Z,1011.66
2018-01-12T05:25:43.981Z,1011.66
2018-01-12T05:26:43.854Z,1011.65
2018-01-12T05:27:43.854Z,1011.67
2018-01-12T05:28:43.877Z,1011.65
2018-01-12T05:29:43.898Z,1011.71
2018-01-12T05:30:43.889Z,1011.72
2018-01-12T05:31:43.903Z,1011.71
2018-01-12T05:32:43.913Z,1011.71
2018-01-12T05:33:43.926Z,1011.76
2018-01-12T05:34:43.946Z,1011.75
2018-01-12T05:35:43.959Z,1011.79
2018-01-12T05:36:43.959Z,1011.77
2018-01-12T05:37:43.974Z,1011.79
2018-01-12T05:38:43.993Z,1011.79
2018-01-12T05:39:43.996Z,1011.81
2018-01-12T05:40:44.022Z,1011.8
2018-01-12T05:41:44.024Z,1011.85
2018-01-12T05:42:44.040Z,1011.83
2018-01-12T05:43:44.052Z,1011.8
2018-01-12T05:44:44.064Z,1011.84
2018-01-12T05:45:44.074Z,1011.89
2018-01-12T05:46:44.076Z,1011.85
2018-01-12T05:47:44.088Z,1011.88
2018-01-12T05:48:44.110Z,1011.9
2018-01-12T05:49:44.120Z,1011.91
2018-01-12T05:50:44.124Z,1011.91
2018-01-12T05:51:44.146Z,1011.92
2018-01-12T05:52:44.145Z,1011.94
2018-01-12T05:53:44.171Z,1011.93
2018-01-12T05:54:44.180Z,1011.94
2018-01-12T05:55:44.190Z,1011.95
2018-01-12T05:56:44.192Z,1011.97
2018-01-12T05:57:44.204Z,1011.99
2018-01-12T05:58:44.226Z,1011.99
2018-01-12T05:59:44.239Z,1011.97
2018-01-12T06:00:44.238Z,1011.99
2018-01-12T06:01:44.253Z,1012.01
2018-01-12T06:02:44.262Z,1012.03
2018-01-12T06:03:44.283Z,1012.02
2018-01-12T06:04:44.284Z,1012.04
2018-01-12T06:05:44.308Z,1012.03
2018-01-12T06:06:44.308Z,1012.05
2018-01-12T06:07:44.329Z,1012.14
2018-01-12T06:08:44.330Z,1012.13
2018-01-12T06:09:44.354Z,1012.13
2018-01-12T06:10:44.355Z,1012.16
2018-01-12T06:11:44.377Z,1012.14
2018-01-12T06:12:44.378Z,1012.22
2018-01-12T06:13:44.407Z,1012.22
2018-01-12T06:14:44.403Z,1012.18
2018-01-12T06:15:44.423Z,1012.23
2018-01-12T06:16:44.435Z,1012.23
2018-01-12T06:17:44.449Z,1012.25
2018-01-12T06:18:44.457Z,1012.28
2018-01-12T06:19:44.469Z,1012.34
2018-01-12T06:20:44.515Z,1012.37
2018-01-12T06:21:44.481Z,1012.4
2018-01-12T06:22:44.503Z,1012.41
2018-01-12T06:23:44.576Z,1012.41
2018-01-12T06:24:44.528Z,1012.46
2018-01-12T06:25:44.528Z,1012.45
2018-01-12T06:26:44.551Z,1012.45
2018-01-12T06:27:44.552Z,1012.48
2018-01-12T06:28:44.565Z,1012.49
2018-01-12T06:29:44.576Z,1012.45
2018-01-12T06:30:44.587Z,1012.44
2018-01-12T06:31:44.758Z,1012.49
2018-01-12T06:32:44.610Z,1012.46
2018-01-12T06:33:44.631Z,1012.43
2018-01-12T06:34:44.633Z,1012.4
2018-01-12T06:35:44.654Z,1012.46
2018-01-12T06:36:44.756Z,1012.44
2018-01-12T06:37:44.679Z,1012.46
2018-01-12T06:38:44.689Z,1012.52
2018-01-12T06:39:44.693Z,1012.52
2018-01-12T06:40:44.712Z,1012.56
2018-01-12T06:41:44.724Z,1012.55
2018-01-12T06:42:44.739Z,1012.47
2018-01-12T06:43:44.747Z,1012.49
2018-01-12T06:44:44.758Z,1012.44
2018-01-12T06:45:44.770Z,1012.5
2018-01-12T06:46:44.772Z,1012.5
2018-01-12T06:47:44.783Z,1012.47
2018-01-12T06:48:44.797Z,1012.47
2018-01-12T06:49:44.808Z,1012.52
2018-01-12T06:50:44.818Z,1012.5
2018-01-12T06:51:44.830Z,1012.54
2018-01-12T06:52:44.842Z,1012.55
2018-01-12T06:53:44.863Z,1012.56
2018-01-12T06:54:44.875Z,1012.59
2018-01-12T06:55:44.889Z,1012.59
2018-01-12T06:56:44.888Z,1012.62
2018-01-12T06:57:44.900Z,1012.64
2018-01-12T06:58:44.912Z,1012.61
2018-01-12T06:59:44.923Z,1012.66
2018-01-12T07:00:44.945Z,1012.64
2018-01-12T07:01:44.949Z,1012.65
2018-01-12T07:02:44.967Z,1012.68
2018-01-12T07:03:44.969Z,1012.68
2018-01-12T07:04:44.991Z,1012.69
2018-01-12T07:05:45.006Z,1012.7
2018-01-12T07:06:45.006Z,1012.74
2018-01-12T07:07:45.019Z,1012.75
2018-01-12T07:08:45.028Z,1012.81
2018-01-12T07:09:45.038Z,1012.81
2018-01-12T07:10:45.064Z,1012.82
2018-01-12T07:11:45.064Z,1012.84
2018-01-12T07:12:45.084Z,1012.82
2018-01-12T07:13:45.098Z,1012.81
2018-01-12T07:14:45.108Z,1012.82
2018-01-12T07:15:45.120Z,1012.78
2018-01-12T07:16:45.130Z,1012.78
2018-01-12T07:17:45.133Z,1012.83
2018-01-12T07:18:45.155Z,1012.82
2018-01-12T07:19:45.166Z,1012.78
2018-01-12T07:20:45.177Z,1012.83
2018-01-12T07:21:45.181Z,1012.84
2018-01-12T07:22:45.201Z,1012.85
2018-01-12T07:23:45.211Z,1012.88
2018-01-12T07:24:45.224Z,1012.87
2018-01-12T07:25:45.226Z,1012.85
2018-01-12T07:26:45.247Z,1012.93
2018-01-12T07:27:45.248Z,1012.89
2018-01-12T07:28:45.261Z,1012.87
2018-01-12T07:29:45.272Z,1012.89
2018-01-12T07:30:45.295Z,1012.89
2018-01-12T07:31:45.326Z,1012.91
2018-01-12T07:32:45.306Z,1012.94
2018-01-12T07:33:45.328Z,1012.92
2018-01-12T07:34:45.341Z,1012.97
2018-01-12T07:35:45.351Z,1012.95
2018-01-12T07:36:45.364Z,1012.95
2018-01-12T07:37:45.376Z,1012.95
2018-01-12T07:38:45.387Z,1012.92
2018-01-12T07:39:45.418Z,1012.97
2018-01-12T07:40:45.399Z,1012.97
2018-01-12T07:41:45.422Z,1013.01
2018-01-12T07:42:45.422Z,1013
2018-01-12T07:43:45.444Z,1013.02
2018-01-12T07:44:45.448Z,1013.06
2018-01-12T07:45:45.457Z,1013.06
2018-01-12T07:46:45.469Z,1013.11
2018-01-12T07:47:45.493Z,1013.11
2018-01-12T07:48:45.492Z,1013.14
2018-01-12T07:49:45.504Z,1013.14
2018-01-12T07:50:45.520Z,1013.2
2018-01-12T07:51:45.528Z,1013.19
2018-01-12T07:52:45.550Z,1013.25
2018-01-12T07:53:45.550Z,1013.26
2018-01-12T07:54:45.573Z,1013.28
2018-01-12T07:55:45.598Z,1013.31
2018-01-12T07:56:45.597Z,1013.31
2018-01-12T07:57:45.597Z,1013.27
2018-01-12T07:58:45.609Z,1013.35
2018-01-12T07:59:45.636Z,1013.37
2018-01-12T08:00:45.642Z,1013.38
2018-01-12T08:01:45.657Z,1013.36
2018-01-12T08:02:45.669Z,1013.39
2018-01-12T08:03:45.686Z,1013.42
2018-01-12T08:04:45.678Z,1013.39
2018-01-12T08:05:45.702Z,1013.38
2018-01-12T08:06:45.714Z,1013.41
2018-01-12T08:07:45.762Z,1013.43
2018-01-12T08:08:45.778Z,1013.47
2018-01-12T08:09:45.751Z,1013.47
2018-01-12T08:10:45.749Z,1013.46
2018-01-12T08:11:45.770Z,1013.46
2018-01-12T08:12:45.872Z,1013.43
2018-01-12T08:13:45.798Z,1013.46
2018-01-12T08:14:45.807Z,1013.46
2018-01-12T08:15:45.806Z,1013.46
2018-01-12T08:16:45.828Z,1013.44
2018-01-12T08:17:45.830Z,1013.41
2018-01-12T08:18:45.841Z,1013.45
2018-01-12T08:19:45.866Z,1013.44
2018-01-12T08:20:45.877Z,1013.43
2018-01-12T08:21:45.890Z,1013.42
2018-01-12T08:22:45.902Z,1013.42
2018-01-12T08:23:45.912Z,1013.44
2018-01-12T08:24:45.923Z,1013.43
2018-01-12T08:25:45.925Z,1013.36
2018-01-12T08:26:45.939Z,1013.44
2018-01-12T08:27:45.947Z,1013.4
2018-01-12T08:28:45.971Z,1013.4
2018-01-12T08:29:46.020Z,1013.44
2018-01-12T08:30:46.025Z,1013.45
2018-01-12T08:31:45.994Z,1013.45
2018-01-12T08:32:46.008Z,1013.45
2018-01-12T08:33:46.028Z,1013.47
2018-01-12T08:34:46.040Z,1013.46
2018-01-12T08:35:46.053Z,1013.49
2018-01-12T08:36:46.067Z,1013.51
2018-01-12T08:37:46.071Z,1013.49
2018-01-12T08:38:46.092Z,1013.51
2018-01-12T08:39:46.092Z,1013.5
2018-01-12T08:40:46.103Z,1013.48
2018-01-12T08:41:46.127Z,1013.49
2018-01-12T08:42:46.124Z,1013.5
2018-01-12T08:43:46.160Z,1013.51
2018-01-12T08:44:46.149Z,1013.55
2018-01-12T08:45:46.158Z,1013.52
2018-01-12T08:46:46.171Z,1013.55
2018-01-12T08:47:46.182Z,1013.53
2018-01-12T08:48:46.195Z,1013.56
2018-01-12T08:49:46.217Z,1013.59
2018-01-12T08:50:46.221Z,1013.57
2018-01-12T08:51:46.233Z,1013.62
2018-01-12T08:52:46.258Z,1013.59
2018-01-12T08:53:46.265Z,1013.59
2018-01-12T08:54:46.278Z,1013.62
2018-01-12T08:55:46.282Z,1013.6
2018-01-12T08:56:46.289Z,1013.6
2018-01-12T08:57:46.302Z,1013.6
2018-01-12T08:58:46.312Z,1013.62
2018-01-12T08:59:46.340Z,1013.64
2018-01-12T09:00:46.339Z,1013.7
2018-01-12T09:01:46.364Z,1013.69
2018-01-12T09:02:46.371Z,1013.72
2018-01-12T09:03:46.375Z,1013.75
2018-01-12T09:04:46.385Z,1013.78
2018-01-12T09:05:46.397Z,1013.78
2018-01-12T09:06:46.419Z,1013.79
2018-01-12T09:07:46.421Z,1013.84
2018-01-12T09:08:46.433Z,1013.85
2018-01-12T09:09:46.460Z,1013.8
2018-01-12T09:10:46.455Z,1013.89
2018-01-12T09:11:46.481Z,1013.84
2018-01-12T09:12:46.491Z,1013.89
2018-01-12T09:13:46.501Z,1013.87
2018-01-12T09:14:46.503Z,1013.87
2018-01-12T09:15:46.517Z,1013.86
2018-01-12T09:16:46.529Z,1013.89
2018-01-12T09:17:46.549Z,1013.89
2018-01-12T09:18:46.693Z,1013.9
2018-01-12T09:19:46.576Z,1013.86
2018-01-12T09:20:46.712Z,1013.91
2018-01-12T09:21:46.594Z,1013.91
2018-01-12T09:22:46.618Z,1013.93
2018-01-12T09:23:46.611Z,1013.94
2018-01-12T09:24:46.645Z,1013.93
2018-01-12T09:25:46.635Z,1013.91
2018-01-12T09:26:46.658Z,1013.91
2018-01-12T09:27:46.660Z,1013.92
2018-01-12T09:28:46.681Z,1013.9
2018-01-12T09:29:46.683Z,1013.9
2018-01-12T09:30:46.705Z,1013.9
2018-01-12T09:31:46.717Z,1013.91
2018-01-12T09:32:46.718Z,1013.9
2018-01-12T09:33:46.742Z,1013.87
2018-01-12T09:34:46.744Z,1013.89
2018-01-12T09:35:46.766Z,1013.88
2018-01-12T09:36:46.766Z,1013.84
2018-01-12T09:37:46.790Z,1013.92
2018-01-12T09:38:46.805Z,1013.92
2018-01-12T09:39:46.804Z,1013.93
2018-01-12T09:40:46.816Z,1013.94
2018-01-12T09:41:46.827Z,1013.99
2018-01-12T09:42:46.849Z,1013.99
2018-01-12T09:43:46.853Z,1014.02
2018-01-12T09:44:46.874Z,1014.07
2018-01-12T09:45:46.886Z,1014.03
2018-01-12T09:46:46.886Z,1014.04
2018-01-12T09:47:46.899Z,1014.06
2018-01-12T09:48:46.911Z,1014.07
2018-01-12T09:49:46.934Z,1014.09
2018-01-12T09:50:46.948Z,1014.14
2018-01-12T09:51:46.948Z,1014.1
2018-01-12T09:52:46.964Z,1014.13
2018-01-12T09:53:46.982Z,1014.12
2018-01-12T09:54:46.996Z,1014.1
2018-01-12T09:55:46.999Z,1014.13
2018-01-12T09:56:47.019Z,1014.15
2018-01-12T09:57:47.030Z,1014.14
2018-01-12T09:58:47.040Z,1014.19
2018-01-12T09:59:47.044Z,1014.21
2018-01-12T10:00:47.067Z,1014.17
2018-01-12T10:01:47.068Z,1014.2
2018-01-12T10:02:47.080Z,1014.19
2018-01-12T10:03:47.092Z,1014.18
2018-01-12T10:04:47.138Z,1014.22
2018-01-12T10:05:47.117Z,1014.19
2018-01-12T10:06:47.129Z,1014.19
2018-01-12T10:07:47.141Z,1014.17
2018-01-12T10:08:47.201Z,1014.13
2018-01-12T10:09:47.166Z,1014.18
2018-01-12T10:10:47.178Z,1014.22
2018-01-12T10:11:47.191Z,1014.23
2018-01-12T10:12:47.212Z,1014.23
2018-01-12T10:13:47.215Z,1014.23
2018-01-12T10:14:47.227Z,1014.22
2018-01-12T10:15:47.240Z,1014.25
2018-01-12T10:16:47.261Z,1014.24
2018-01-12T10:17:47.272Z,1014.21
2018-01-12T10:18:47.325Z,1014.19
2018-01-12T10:19:47.296Z,1014.17
2018-01-12T10:20:47.309Z,1014.2
2018-01-12T10:21:47.324Z,1014.2
2018-01-12T10:22:47.328Z,1014.2
2018-01-12T10:23:47.337Z,1014.21
2018-01-12T10:24:47.361Z,1014.22
2018-01-12T10:25:47.366Z,1014.23
2018-01-12T10:26:47.373Z,1014.25
2018-01-12T10:27:47.396Z,1014.23
2018-01-12T10:28:47.410Z,1014.23
2018-01-12T10:29:47.410Z,1014.24
2018-01-12T10:30:47.433Z,1014.23
2018-01-12T10:31:47.445Z,1014.26
2018-01-12T10:32:47.457Z,1014.25
2018-01-12T10:33:47.463Z,1014.23
2018-01-12T10:34:47.474Z,1014.23
2018-01-12T10:35:47.485Z,1014.26
2018-01-12T10:36:47.507Z,1014.22
2018-01-12T10:37:47.519Z,1014.26
2018-01-12T10:38:47.521Z,1014.26
2018-01-12T10:39:47.545Z,1014.31
2018-01-12T10:40:47.545Z,1014.31
2018-01-12T10:41:47.568Z,1014.35
2018-01-12T10:42:47.572Z,1014.38
2018-01-12T10:43:47.593Z,1014.35
2018-01-12T10:44:47.595Z,1014.37
2018-01-12T10:45:47.617Z,1014.37
2018-01-12T10:46:47.619Z,1014.35
2018-01-12T10:47:47.633Z,1014.36
2018-01-12T10:48:47.751Z,1014.39
2018-01-12T10:49:47.657Z,1014.37
2018-01-12T10:50:47.669Z,1014.35
2018-01-12T10:51:47.687Z,1014.32
2018-01-12T10:52:47.702Z,1014.38
2018-01-12T10:53:47.765Z,1014.38
2018-01-12T10:54:47.729Z,1014.35
2018-01-12T10:55:47.739Z,1014.34
2018-01-12T10:56:47.742Z,1014.36
2018-01-12T10:57:47.765Z,1014.34
2018-01-12T10:58:47.778Z,1014.37
2018-01-12T10:59:47.778Z,1014.35
2018-01-12T11:00:47.791Z,1014.33
2018-01-12T11:01:47.815Z,1014.34
2018-01-12T11:02:47.827Z,1014.39
2018-01-12T11:03:47.827Z,1014.38
2018-01-12T11:04:47.841Z,1014.41
2018-01-12T11:05:47.863Z,1014.42
2018-01-12T11:06:47.885Z,1014.43
2018-01-12T11:07:47.878Z,1014.39
2018-01-12T11:08:47.903Z,1014.43
2018-01-12T11:09:47.902Z,1014.43
2018-01-12T11:10:47.926Z,1014.47
2018-01-12T11:11:47.938Z,1014.41
2018-01-12T11:12:47.950Z,1014.44
2018-01-12T11:13:47.964Z,1014.42
2018-01-12T11:14:47.975Z,1014.45
2018-01-12T11:15:47.988Z,1014.47
2018-01-12T11:16:48.000Z,1014.42
2018-01-12T11:17:48.004Z,1014.41
2018-01-12T11:18:48.024Z,1014.41
2018-01-12T11:19:48.028Z,1014.37
2018-01-12T11:20:48.052Z,1014.4
2018-01-12T11:21:48.063Z,1014.37
2018-01-12T11:22:48.078Z,1014.38
2018-01-12T11:23:48.076Z,1014.39
2018-01-12T11:24:48.089Z,1014.42
2018-01-12T11:25:48.112Z,1014.39
2018-01-12T11:26:48.113Z,1014.4
2018-01-12T11:27:48.138Z,1014.38
2018-01-12T11:28:48.138Z,1014.37
2018-01-12T11:29:48.151Z,1014.36
2018-01-12T11:30:48.164Z,1014.34
2018-01-12T11:31:48.187Z,1014.36
2018-01-12T11:32:48.200Z,1014.37
2018-01-12T11:33:48.211Z,1014.35
2018-01-12T11:34:48.213Z,1014.31
2018-01-12T11:35:48.226Z,1014.32
2018-01-12T11:36:48.238Z,1014.33
2018-01-12T11:37:48.261Z,1014.33
2018-01-12T11:38:48.276Z,1014.31
2018-01-12T11:39:48.286Z,1014.35
2018-01-12T11:40:48.289Z,1014.34
2018-01-12T11:41:48.314Z,1014.36
2018-01-12T11:42:48.331Z,1014.35
2018-01-12T11:43:48.349Z,1014.39
2018-01-12T11:44:48.338Z,1014.38
2018-01-12T11:45:48.351Z,1014.38
2018-01-12T11:46:48.376Z,1014.36
2018-01-12T11:47:48.377Z,1014.34
2018-01-12T11:48:48.391Z,1014.4
2018-01-12T11:49:48.401Z,1014.33
2018-01-12T11:50:48.423Z,1014.34
2018-01-12T11:51:48.436Z,1014.34
2018-01-12T11:52:48.439Z,1014.36
2018-01-12T11:53:48.464Z,1014.34
2018-01-12T11:54:48.463Z,1014.35
2018-01-12T11:55:48.486Z,1014.34
2018-01-12T11:56:48.499Z,1014.29
2018-01-12T11:57:48.512Z,1014.32
2018-01-12T11:58:48.515Z,1014.3
2018-01-12T11:59:48.528Z,1014.29
2018-01-12T12:00:48.551Z,1014.34
2018-01-12T12:01:48.562Z,1014.33
2018-01-12T12:02:48.575Z,1014.34
2018-01-12T12:03:48.593Z,1014.35
2018-01-12T12:04:48.592Z,1014.33
2018-01-12T12:05:48.603Z,1014.38
2018-01-12T12:06:48.615Z,1014.42
2018-01-12T12:07:48.635Z,1014.41
2018-01-12T12:08:48.640Z,1014.44